<?xml version="1.0" encoding="UTF-8" standalone="no" ?>
<gpx xmlns="http://www.topografix.com/GPX/1/1" xmlns:xsi="http://www.w3.org/2001/XMLSchema-instance" xsi:schemaLocation="http://www.topografix.com/GPX/1/1 http://www.topografix.com/GPX/1/1/gpx.xsd" version="1.1" creator="VisuGPX - https://www.visugpx.com">
  <metadata>
    <name>Etel_RiveGauchePortloroisStCado</name>
    <desc><![CDATA[gnerando idor: 6224340_6533556]]></desc>
  </metadata>
  <trk>
    <name><![CDATA[RiaEtelRiveGauchePortLorois_13.4km-6533556]]></name>
    <extensions>
      <line xmlns="http://www.topografix.com/GPX/gpx_style/0/2">
        <color>0000FF</color>
        <width>4</width>
      </line>
    </extensions>
    <trkseg>
      <trkpt lat="47.67598" lon="-3.16872">
        <ele>9</ele>
        <time>2023-10-30T17:49:58Z</time>
      </trkpt>
      <trkpt lat="47.67591" lon="-3.16897">
        <ele>9</ele>
        <time>2023-10-30T17:50:22Z</time>
      </trkpt>
      <trkpt lat="47.67599" lon="-3.16923">
        <ele>10</ele>
        <time>2023-10-30T17:50:48Z</time>
      </trkpt>
      <trkpt lat="47.67632" lon="-3.16951">
        <ele>11</ele>
        <time>2023-10-30T17:51:39Z</time>
      </trkpt>
      <trkpt lat="47.67647" lon="-3.16967">
        <ele>12</ele>
        <time>2023-10-30T17:52:03Z</time>
      </trkpt>
      <trkpt lat="47.67649" lon="-3.16994">
        <ele>13</ele>
        <time>2023-10-30T17:52:28Z</time>
      </trkpt>
      <trkpt lat="47.67647" lon="-3.17021">
        <ele>13</ele>
        <time>2023-10-30T17:52:52Z</time>
      </trkpt>
      <trkpt lat="47.67652" lon="-3.17076">
        <ele>12</ele>
        <time>2023-10-30T17:53:42Z</time>
      </trkpt>
      <trkpt lat="47.67644" lon="-3.17183">
        <ele>12</ele>
        <time>2023-10-30T17:55:19Z</time>
      </trkpt>
      <trkpt lat="47.67627" lon="-3.17231">
        <ele>12</ele>
        <time>2023-10-30T17:56:08Z</time>
      </trkpt>
      <trkpt lat="47.67625" lon="-3.17259">
        <ele>12</ele>
        <time>2023-10-30T17:56:33Z</time>
      </trkpt>
      <trkpt lat="47.67632" lon="-3.17285">
        <ele>13</ele>
        <time>2023-10-30T17:56:58Z</time>
      </trkpt>
      <trkpt lat="47.67629" lon="-3.17311">
        <ele>12</ele>
        <time>2023-10-30T17:57:22Z</time>
      </trkpt>
      <trkpt lat="47.67605" lon="-3.17352">
        <ele>10</ele>
        <time>2023-10-30T17:58:10Z</time>
      </trkpt>
      <trkpt lat="47.67578" lon="-3.1739">
        <ele>9</ele>
        <time>2023-10-30T17:59:00Z</time>
      </trkpt>
      <trkpt lat="47.67576" lon="-3.17418">
        <ele>8</ele>
        <time>2023-10-30T17:59:25Z</time>
      </trkpt>
      <trkpt lat="47.67582" lon="-3.17471">
        <ele>7</ele>
        <time>2023-10-30T18:00:14Z</time>
      </trkpt>
      <trkpt lat="47.67581" lon="-3.17526">
        <ele>7</ele>
        <time>2023-10-30T18:01:03Z</time>
      </trkpt>
      <trkpt lat="47.67578" lon="-3.17553">
        <ele>6</ele>
        <time>2023-10-30T18:01:28Z</time>
      </trkpt>
      <trkpt lat="47.67582" lon="-3.17579">
        <ele>6</ele>
        <time>2023-10-30T18:01:52Z</time>
      </trkpt>
      <trkpt lat="47.67578" lon="-3.17606">
        <ele>6</ele>
        <time>2023-10-30T18:02:17Z</time>
      </trkpt>
      <trkpt lat="47.67577" lon="-3.17661">
        <ele>6</ele>
        <time>2023-10-30T18:03:06Z</time>
      </trkpt>
      <trkpt lat="47.67581" lon="-3.17689">
        <ele>6</ele>
        <time>2023-10-30T18:03:32Z</time>
      </trkpt>
      <trkpt lat="47.67584" lon="-3.17771">
        <ele>7</ele>
        <time>2023-10-30T18:04:45Z</time>
      </trkpt>
      <trkpt lat="47.67584" lon="-3.17936">
        <ele>9</ele>
        <time>2023-10-30T18:07:14Z</time>
      </trkpt>
      <trkpt lat="47.67586" lon="-3.17963">
        <ele>10</ele>
        <time>2023-10-30T18:07:38Z</time>
      </trkpt>
      <trkpt lat="47.67581" lon="-3.17989">
        <ele>11</ele>
        <time>2023-10-30T18:08:02Z</time>
      </trkpt>
      <trkpt lat="47.67572" lon="-3.18013">
        <ele>11</ele>
        <time>2023-10-30T18:08:27Z</time>
      </trkpt>
      <trkpt lat="47.67554" lon="-3.1802">
        <ele>12</ele>
        <time>2023-10-30T18:08:52Z</time>
      </trkpt>
      <trkpt lat="47.67535" lon="-3.18017">
        <ele>12</ele>
        <time>2023-10-30T18:09:17Z</time>
      </trkpt>
      <trkpt lat="47.67519" lon="-3.18029">
        <ele>13</ele>
        <time>2023-10-30T18:09:41Z</time>
      </trkpt>
      <trkpt lat="47.67502" lon="-3.18038">
        <ele>13</ele>
        <time>2023-10-30T18:10:05Z</time>
      </trkpt>
      <trkpt lat="47.67473" lon="-3.18073">
        <ele>15</ele>
        <time>2023-10-30T18:10:55Z</time>
      </trkpt>
      <trkpt lat="47.67456" lon="-3.18079">
        <ele>15</ele>
        <time>2023-10-30T18:11:19Z</time>
      </trkpt>
      <trkpt lat="47.67419" lon="-3.18083">
        <ele>16</ele>
        <time>2023-10-30T18:12:08Z</time>
      </trkpt>
      <trkpt lat="47.67407" lon="-3.18105">
        <ele>16</ele>
        <time>2023-10-30T18:12:34Z</time>
      </trkpt>
      <trkpt lat="47.6742" lon="-3.18125">
        <ele>16</ele>
        <time>2023-10-30T18:12:59Z</time>
      </trkpt>
      <trkpt lat="47.67405" lon="-3.18205">
        <ele>16</ele>
        <time>2023-10-30T18:14:13Z</time>
      </trkpt>
      <trkpt lat="47.67403" lon="-3.18233">
        <ele>16</ele>
        <time>2023-10-30T18:14:39Z</time>
      </trkpt>
      <trkpt lat="47.67405" lon="-3.1826">
        <ele>17</ele>
        <time>2023-10-30T18:15:03Z</time>
      </trkpt>
      <trkpt lat="47.67401" lon="-3.18315">
        <ele>17</ele>
        <time>2023-10-30T18:15:53Z</time>
      </trkpt>
      <trkpt lat="47.67404" lon="-3.18341">
        <ele>17</ele>
        <time>2023-10-30T18:16:16Z</time>
      </trkpt>
      <trkpt lat="47.67403" lon="-3.18396">
        <ele>16</ele>
        <time>2023-10-30T18:17:06Z</time>
      </trkpt>
      <trkpt lat="47.6734" lon="-3.18596">
        <ele>10</ele>
        <time>2023-10-30T18:20:24Z</time>
      </trkpt>
      <trkpt lat="47.67336" lon="-3.18678">
        <ele>10</ele>
        <time>2023-10-30T18:21:38Z</time>
      </trkpt>
      <trkpt lat="47.67327" lon="-3.18761">
        <ele>12</ele>
        <time>2023-10-30T18:22:54Z</time>
      </trkpt>
      <trkpt lat="47.67337" lon="-3.18814">
        <ele>12</ele>
        <time>2023-10-30T18:23:43Z</time>
      </trkpt>
      <trkpt lat="47.67338" lon="-3.18842">
        <ele>12</ele>
        <time>2023-10-30T18:24:08Z</time>
      </trkpt>
      <trkpt lat="47.67336" lon="-3.18868">
        <ele>12</ele>
        <time>2023-10-30T18:24:32Z</time>
      </trkpt>
      <trkpt lat="47.6733" lon="-3.18895">
        <ele>13</ele>
        <time>2023-10-30T18:24:57Z</time>
      </trkpt>
      <trkpt lat="47.67289" lon="-3.1895">
        <ele>12</ele>
        <time>2023-10-30T18:26:11Z</time>
      </trkpt>
      <trkpt lat="47.67271" lon="-3.18954">
        <ele>12</ele>
        <time>2023-10-30T18:26:35Z</time>
      </trkpt>
      <trkpt lat="47.67256" lon="-3.1897">
        <ele>12</ele>
        <time>2023-10-30T18:27:00Z</time>
      </trkpt>
      <trkpt lat="47.67253" lon="-3.18997">
        <ele>13</ele>
        <time>2023-10-30T18:27:25Z</time>
      </trkpt>
      <trkpt lat="47.67234" lon="-3.18997">
        <ele>13</ele>
        <time>2023-10-30T18:27:50Z</time>
      </trkpt>
      <trkpt lat="47.67222" lon="-3.19017">
        <ele>13</ele>
        <time>2023-10-30T18:28:14Z</time>
      </trkpt>
      <trkpt lat="47.67228" lon="-3.19073">
        <ele>13</ele>
        <time>2023-10-30T18:29:05Z</time>
      </trkpt>
      <trkpt lat="47.67226" lon="-3.191">
        <ele>13</ele>
        <time>2023-10-30T18:29:29Z</time>
      </trkpt>
      <trkpt lat="47.67214" lon="-3.19151">
        <ele>12</ele>
        <time>2023-10-30T18:30:18Z</time>
      </trkpt>
      <trkpt lat="47.672" lon="-3.19202">
        <ele>12</ele>
        <time>2023-10-30T18:31:07Z</time>
      </trkpt>
      <trkpt lat="47.67176" lon="-3.19275">
        <ele>13</ele>
        <time>2023-10-30T18:32:20Z</time>
      </trkpt>
      <trkpt lat="47.67157" lon="-3.19322">
        <ele>14</ele>
        <time>2023-10-30T18:33:10Z</time>
      </trkpt>
      <trkpt lat="47.6715" lon="-3.19347">
        <ele>14</ele>
        <time>2023-10-30T18:33:34Z</time>
      </trkpt>
      <trkpt lat="47.67135" lon="-3.19364">
        <ele>14</ele>
        <time>2023-10-30T18:33:59Z</time>
      </trkpt>
      <trkpt lat="47.67121" lon="-3.19415">
        <ele>14</ele>
        <time>2023-10-30T18:34:49Z</time>
      </trkpt>
      <trkpt lat="47.671" lon="-3.19462">
        <ele>16</ele>
        <time>2023-10-30T18:35:39Z</time>
      </trkpt>
      <trkpt lat="47.67093" lon="-3.19487">
        <ele>16</ele>
        <time>2023-10-30T18:36:04Z</time>
      </trkpt>
      <trkpt lat="47.67085" lon="-3.19541">
        <ele>16</ele>
        <time>2023-10-30T18:36:53Z</time>
      </trkpt>
      <trkpt lat="47.6707" lon="-3.19525">
        <ele>16</ele>
        <time>2023-10-30T18:37:18Z</time>
      </trkpt>
      <trkpt lat="47.67035" lon="-3.19507">
        <ele>15</ele>
        <time>2023-10-30T18:38:07Z</time>
      </trkpt>
      <trkpt lat="47.67014" lon="-3.19461">
        <ele>13</ele>
        <time>2023-10-30T18:38:57Z</time>
      </trkpt>
      <trkpt lat="47.67" lon="-3.19411">
        <ele>12</ele>
        <time>2023-10-30T18:39:46Z</time>
      </trkpt>
      <trkpt lat="47.66985" lon="-3.19393">
        <ele>12</ele>
        <time>2023-10-30T18:40:12Z</time>
      </trkpt>
      <trkpt lat="47.66969" lon="-3.1938">
        <ele>11</ele>
        <time>2023-10-30T18:40:36Z</time>
      </trkpt>
      <trkpt lat="47.6694" lon="-3.19345">
        <ele>11</ele>
        <time>2023-10-30T18:41:26Z</time>
      </trkpt>
      <trkpt lat="47.66894" lon="-3.19299">
        <ele>9</ele>
        <time>2023-10-30T18:42:40Z</time>
      </trkpt>
      <trkpt lat="47.66876" lon="-3.19294">
        <ele>9</ele>
        <time>2023-10-30T18:43:04Z</time>
      </trkpt>
      <trkpt lat="47.66859" lon="-3.19304">
        <ele>8</ele>
        <time>2023-10-30T18:43:29Z</time>
      </trkpt>
      <trkpt lat="47.66841" lon="-3.19311">
        <ele>8</ele>
        <time>2023-10-30T18:43:54Z</time>
      </trkpt>
      <trkpt lat="47.66823" lon="-3.193">
        <ele>7</ele>
        <time>2023-10-30T18:44:20Z</time>
      </trkpt>
      <trkpt lat="47.66749" lon="-3.19289">
        <ele>6</ele>
        <time>2023-10-30T18:45:59Z</time>
      </trkpt>
      <trkpt lat="47.66716" lon="-3.19315">
        <ele>7</ele>
        <time>2023-10-30T18:46:49Z</time>
      </trkpt>
      <trkpt lat="47.66698" lon="-3.19323">
        <ele>7</ele>
        <time>2023-10-30T18:47:14Z</time>
      </trkpt>
      <trkpt lat="47.66624" lon="-3.19328">
        <ele>7</ele>
        <time>2023-10-30T18:48:53Z</time>
      </trkpt>
      <trkpt lat="47.66551" lon="-3.19311">
        <ele>7</ele>
        <time>2023-10-30T18:50:31Z</time>
      </trkpt>
      <trkpt lat="47.66514" lon="-3.19306">
        <ele>7</ele>
        <time>2023-10-30T18:51:21Z</time>
      </trkpt>
      <trkpt lat="47.66497" lon="-3.19296">
        <ele>7</ele>
        <time>2023-10-30T18:51:45Z</time>
      </trkpt>
      <trkpt lat="47.66472" lon="-3.19256">
        <ele>7</ele>
        <time>2023-10-30T18:52:34Z</time>
      </trkpt>
      <trkpt lat="47.6643" lon="-3.19203">
        <ele>7</ele>
        <time>2023-10-30T18:53:48Z</time>
      </trkpt>
      <trkpt lat="47.66399" lon="-3.19172">
        <ele>7</ele>
        <time>2023-10-30T18:54:38Z</time>
      </trkpt>
      <trkpt lat="47.66381" lon="-3.19165">
        <ele>7</ele>
        <time>2023-10-30T18:55:03Z</time>
      </trkpt>
      <trkpt lat="47.66364" lon="-3.19155">
        <ele>7</ele>
        <time>2023-10-30T18:55:27Z</time>
      </trkpt>
      <trkpt lat="47.66347" lon="-3.19142">
        <ele>7</ele>
        <time>2023-10-30T18:55:52Z</time>
      </trkpt>
      <trkpt lat="47.6633" lon="-3.19133">
        <ele>6</ele>
        <time>2023-10-30T18:56:17Z</time>
      </trkpt>
      <trkpt lat="47.66315" lon="-3.1912">
        <ele>5</ele>
        <time>2023-10-30T18:56:40Z</time>
      </trkpt>
      <trkpt lat="47.66308" lon="-3.19094">
        <ele>3</ele>
        <time>2023-10-30T18:57:05Z</time>
      </trkpt>
      <trkpt lat="47.66294" lon="-3.19077">
        <ele>2</ele>
        <time>2023-10-30T18:57:29Z</time>
      </trkpt>
      <trkpt lat="47.66308" lon="-3.19094">
        <ele>3</ele>
        <time>2023-10-30T18:57:53Z</time>
      </trkpt>
      <trkpt lat="47.66304" lon="-3.19121">
        <ele>4</ele>
        <time>2023-10-30T18:58:18Z</time>
      </trkpt>
      <trkpt lat="47.66289" lon="-3.19171">
        <ele>4</ele>
        <time>2023-10-30T18:59:07Z</time>
      </trkpt>
      <trkpt lat="47.66295" lon="-3.19197">
        <ele>6</ele>
        <time>2023-10-30T18:59:32Z</time>
      </trkpt>
      <trkpt lat="47.66295" lon="-3.19225">
        <ele>7</ele>
        <time>2023-10-30T18:59:57Z</time>
      </trkpt>
      <trkpt lat="47.66313" lon="-3.19274">
        <ele>8</ele>
        <time>2023-10-30T19:00:47Z</time>
      </trkpt>
      <trkpt lat="47.66316" lon="-3.19301">
        <ele>7</ele>
        <time>2023-10-30T19:01:12Z</time>
      </trkpt>
      <trkpt lat="47.66317" lon="-3.19356">
        <ele>6</ele>
        <time>2023-10-30T19:02:01Z</time>
      </trkpt>
      <trkpt lat="47.6631" lon="-3.19409">
        <ele>6</ele>
        <time>2023-10-30T19:02:50Z</time>
      </trkpt>
      <trkpt lat="47.66324" lon="-3.19461">
        <ele>7</ele>
        <time>2023-10-30T19:03:40Z</time>
      </trkpt>
      <trkpt lat="47.66324" lon="-3.19488">
        <ele>7</ele>
        <time>2023-10-30T19:04:04Z</time>
      </trkpt>
      <trkpt lat="47.66318" lon="-3.19514">
        <ele>6</ele>
        <time>2023-10-30T19:04:29Z</time>
      </trkpt>
      <trkpt lat="47.66329" lon="-3.19535">
        <ele>6</ele>
        <time>2023-10-30T19:04:53Z</time>
      </trkpt>
      <trkpt lat="47.66344" lon="-3.1955">
        <ele>7</ele>
        <time>2023-10-30T19:05:17Z</time>
      </trkpt>
      <trkpt lat="47.66372" lon="-3.19585">
        <ele>7</ele>
        <time>2023-10-30T19:06:06Z</time>
      </trkpt>
      <trkpt lat="47.66388" lon="-3.19599">
        <ele>8</ele>
        <time>2023-10-30T19:06:31Z</time>
      </trkpt>
      <trkpt lat="47.66393" lon="-3.19625">
        <ele>7</ele>
        <time>2023-10-30T19:06:55Z</time>
      </trkpt>
      <trkpt lat="47.66406" lon="-3.19643">
        <ele>7</ele>
        <time>2023-10-30T19:07:19Z</time>
      </trkpt>
      <trkpt lat="47.66421" lon="-3.19694">
        <ele>6</ele>
        <time>2023-10-30T19:08:09Z</time>
      </trkpt>
      <trkpt lat="47.66419" lon="-3.19722">
        <ele>6</ele>
        <time>2023-10-30T19:08:34Z</time>
      </trkpt>
      <trkpt lat="47.6643" lon="-3.19802">
        <ele>5</ele>
        <time>2023-10-30T19:09:47Z</time>
      </trkpt>
      <trkpt lat="47.66425" lon="-3.19829">
        <ele>4</ele>
        <time>2023-10-30T19:10:13Z</time>
      </trkpt>
      <trkpt lat="47.66425" lon="-3.19856">
        <ele>4</ele>
        <time>2023-10-30T19:10:37Z</time>
      </trkpt>
      <trkpt lat="47.66432" lon="-3.19881">
        <ele>4</ele>
        <time>2023-10-30T19:11:01Z</time>
      </trkpt>
      <trkpt lat="47.66433" lon="-3.19909">
        <ele>3</ele>
        <time>2023-10-30T19:11:26Z</time>
      </trkpt>
      <trkpt lat="47.66449" lon="-3.1992">
        <ele>4</ele>
        <time>2023-10-30T19:11:50Z</time>
      </trkpt>
      <trkpt lat="47.66467" lon="-3.19926">
        <ele>4</ele>
        <time>2023-10-30T19:12:15Z</time>
      </trkpt>
      <trkpt lat="47.66482" lon="-3.19942">
        <ele>5</ele>
        <time>2023-10-30T19:12:39Z</time>
      </trkpt>
      <trkpt lat="47.66477" lon="-3.19968">
        <ele>5</ele>
        <time>2023-10-30T19:13:04Z</time>
      </trkpt>
      <trkpt lat="47.66453" lon="-3.2001">
        <ele>5</ele>
        <time>2023-10-30T19:13:53Z</time>
      </trkpt>
      <trkpt lat="47.66434" lon="-3.20018">
        <ele>4</ele>
        <time>2023-10-30T19:14:19Z</time>
      </trkpt>
      <trkpt lat="47.66415" lon="-3.20021">
        <ele>4</ele>
        <time>2023-10-30T19:14:45Z</time>
      </trkpt>
      <trkpt lat="47.66399" lon="-3.20035">
        <ele>5</ele>
        <time>2023-10-30T19:15:10Z</time>
      </trkpt>
      <trkpt lat="47.66409" lon="-3.20057">
        <ele>5</ele>
        <time>2023-10-30T19:15:34Z</time>
      </trkpt>
      <trkpt lat="47.66415" lon="-3.20084">
        <ele>5</ele>
        <time>2023-10-30T19:15:59Z</time>
      </trkpt>
      <trkpt lat="47.66437" lon="-3.20127">
        <ele>6</ele>
        <time>2023-10-30T19:16:48Z</time>
      </trkpt>
      <trkpt lat="47.66462" lon="-3.20202">
        <ele>6</ele>
        <time>2023-10-30T19:18:03Z</time>
      </trkpt>
      <trkpt lat="47.66479" lon="-3.20213">
        <ele>5</ele>
        <time>2023-10-30T19:18:28Z</time>
      </trkpt>
      <trkpt lat="47.66495" lon="-3.20228">
        <ele>4</ele>
        <time>2023-10-30T19:18:53Z</time>
      </trkpt>
      <trkpt lat="47.66513" lon="-3.20276">
        <ele>3</ele>
        <time>2023-10-30T19:19:42Z</time>
      </trkpt>
      <trkpt lat="47.66518" lon="-3.20302">
        <ele>3</ele>
        <time>2023-10-30T19:20:06Z</time>
      </trkpt>
      <trkpt lat="47.66533" lon="-3.20286">
        <ele>3</ele>
        <time>2023-10-30T19:20:31Z</time>
      </trkpt>
      <trkpt lat="47.66541" lon="-3.20233">
        <ele>4</ele>
        <time>2023-10-30T19:21:20Z</time>
      </trkpt>
      <trkpt lat="47.66552" lon="-3.2021">
        <ele>4</ele>
        <time>2023-10-30T19:21:45Z</time>
      </trkpt>
      <trkpt lat="47.6656" lon="-3.20156">
        <ele>6</ele>
        <time>2023-10-30T19:22:35Z</time>
      </trkpt>
      <trkpt lat="47.66569" lon="-3.20133">
        <ele>6</ele>
        <time>2023-10-30T19:22:59Z</time>
      </trkpt>
      <trkpt lat="47.66586" lon="-3.20123">
        <ele>6</ele>
        <time>2023-10-30T19:23:23Z</time>
      </trkpt>
      <trkpt lat="47.66605" lon="-3.20124">
        <ele>6</ele>
        <time>2023-10-30T19:23:49Z</time>
      </trkpt>
      <trkpt lat="47.6662" lon="-3.2014">
        <ele>6</ele>
        <time>2023-10-30T19:24:13Z</time>
      </trkpt>
      <trkpt lat="47.66623" lon="-3.20166">
        <ele>5</ele>
        <time>2023-10-30T19:24:37Z</time>
      </trkpt>
      <trkpt lat="47.66631" lon="-3.20191">
        <ele>5</ele>
        <time>2023-10-30T19:25:02Z</time>
      </trkpt>
      <trkpt lat="47.66622" lon="-3.20215">
        <ele>5</ele>
        <time>2023-10-30T19:25:27Z</time>
      </trkpt>
      <trkpt lat="47.66621" lon="-3.2027">
        <ele>5</ele>
        <time>2023-10-30T19:26:16Z</time>
      </trkpt>
      <trkpt lat="47.66629" lon="-3.20322">
        <ele>6</ele>
        <time>2023-10-30T19:27:04Z</time>
      </trkpt>
      <trkpt lat="47.66626" lon="-3.20349">
        <ele>6</ele>
        <time>2023-10-30T19:27:29Z</time>
      </trkpt>
      <trkpt lat="47.66614" lon="-3.2037">
        <ele>5</ele>
        <time>2023-10-30T19:27:53Z</time>
      </trkpt>
      <trkpt lat="47.66617" lon="-3.20397">
        <ele>5</ele>
        <time>2023-10-30T19:28:18Z</time>
      </trkpt>
      <trkpt lat="47.66633" lon="-3.20412">
        <ele>6</ele>
        <time>2023-10-30T19:28:43Z</time>
      </trkpt>
      <trkpt lat="47.66661" lon="-3.2045">
        <ele>7</ele>
        <time>2023-10-30T19:29:34Z</time>
      </trkpt>
      <trkpt lat="47.66665" lon="-3.20477">
        <ele>6</ele>
        <time>2023-10-30T19:29:59Z</time>
      </trkpt>
      <trkpt lat="47.66678" lon="-3.20496">
        <ele>6</ele>
        <time>2023-10-30T19:30:23Z</time>
      </trkpt>
      <trkpt lat="47.66671" lon="-3.20521">
        <ele>6</ele>
        <time>2023-10-30T19:30:47Z</time>
      </trkpt>
      <trkpt lat="47.6666" lon="-3.20543">
        <ele>5</ele>
        <time>2023-10-30T19:31:12Z</time>
      </trkpt>
      <trkpt lat="47.66659" lon="-3.2057">
        <ele>5</ele>
        <time>2023-10-30T19:31:36Z</time>
      </trkpt>
      <trkpt lat="47.66675" lon="-3.20586">
        <ele>5</ele>
        <time>2023-10-30T19:32:02Z</time>
      </trkpt>
      <trkpt lat="47.66683" lon="-3.2061">
        <ele>5</ele>
        <time>2023-10-30T19:32:26Z</time>
      </trkpt>
      <trkpt lat="47.66688" lon="-3.20637">
        <ele>5</ele>
        <time>2023-10-30T19:32:51Z</time>
      </trkpt>
      <trkpt lat="47.66699" lon="-3.20658">
        <ele>6</ele>
        <time>2023-10-30T19:33:15Z</time>
      </trkpt>
      <trkpt lat="47.66714" lon="-3.20675">
        <ele>6</ele>
        <time>2023-10-30T19:33:40Z</time>
      </trkpt>
      <trkpt lat="47.66718" lon="-3.20701">
        <ele>7</ele>
        <time>2023-10-30T19:34:04Z</time>
      </trkpt>
      <trkpt lat="47.66703" lon="-3.20717">
        <ele>7</ele>
        <time>2023-10-30T19:34:29Z</time>
      </trkpt>
      <trkpt lat="47.66674" lon="-3.20685">
        <ele>5</ele>
        <time>2023-10-30T19:35:17Z</time>
      </trkpt>
      <trkpt lat="47.66655" lon="-3.20693">
        <ele>4</ele>
        <time>2023-10-30T19:35:43Z</time>
      </trkpt>
      <trkpt lat="47.66643" lon="-3.20713">
        <ele>4</ele>
        <time>2023-10-30T19:36:08Z</time>
      </trkpt>
      <trkpt lat="47.66645" lon="-3.20796">
        <ele>4</ele>
        <time>2023-10-30T19:37:22Z</time>
      </trkpt>
      <trkpt lat="47.66655" lon="-3.2085">
        <ele>3</ele>
        <time>2023-10-30T19:38:13Z</time>
      </trkpt>
      <trkpt lat="47.66663" lon="-3.20876">
        <ele>2</ele>
        <time>2023-10-30T19:38:38Z</time>
      </trkpt>
      <trkpt lat="47.66678" lon="-3.20893">
        <ele>2</ele>
        <time>2023-10-30T19:39:03Z</time>
      </trkpt>
      <trkpt lat="47.66696" lon="-3.20892">
        <ele>2</ele>
        <time>2023-10-30T19:39:27Z</time>
      </trkpt>
      <trkpt lat="47.66712" lon="-3.20877">
        <ele>2</ele>
        <time>2023-10-30T19:39:53Z</time>
      </trkpt>
      <trkpt lat="47.66729" lon="-3.20868">
        <ele>3</ele>
        <time>2023-10-30T19:40:17Z</time>
      </trkpt>
      <trkpt lat="47.66764" lon="-3.20885">
        <ele>2</ele>
        <time>2023-10-30T19:41:06Z</time>
      </trkpt>
      <trkpt lat="47.66783" lon="-3.20889">
        <ele>3</ele>
        <time>2023-10-30T19:41:31Z</time>
      </trkpt>
      <trkpt lat="47.66819" lon="-3.2088">
        <ele>4</ele>
        <time>2023-10-30T19:42:20Z</time>
      </trkpt>
      <trkpt lat="47.66874" lon="-3.2088">
        <ele>4</ele>
        <time>2023-10-30T19:43:34Z</time>
      </trkpt>
      <trkpt lat="47.66891" lon="-3.20889">
        <ele>3</ele>
        <time>2023-10-30T19:43:58Z</time>
      </trkpt>
      <trkpt lat="47.6691" lon="-3.20888">
        <ele>3</ele>
        <time>2023-10-30T19:44:23Z</time>
      </trkpt>
      <trkpt lat="47.66925" lon="-3.20873">
        <ele>4</ele>
        <time>2023-10-30T19:44:47Z</time>
      </trkpt>
      <trkpt lat="47.66943" lon="-3.20867">
        <ele>3</ele>
        <time>2023-10-30T19:45:12Z</time>
      </trkpt>
      <trkpt lat="47.66993" lon="-3.20834">
        <ele>1</ele>
        <time>2023-10-30T19:46:25Z</time>
      </trkpt>
      <trkpt lat="47.66986" lon="-3.20808">
        <ele>3</ele>
        <time>2023-10-30T19:46:50Z</time>
      </trkpt>
      <trkpt lat="47.66984" lon="-3.20781">
        <ele>3</ele>
        <time>2023-10-30T19:47:14Z</time>
      </trkpt>
      <trkpt lat="47.66986" lon="-3.20754">
        <ele>4</ele>
        <time>2023-10-30T19:47:39Z</time>
      </trkpt>
      <trkpt lat="47.66971" lon="-3.20737">
        <ele>5</ele>
        <time>2023-10-30T19:48:04Z</time>
      </trkpt>
      <trkpt lat="47.66967" lon="-3.2071">
        <ele>5</ele>
        <time>2023-10-30T19:48:29Z</time>
      </trkpt>
      <trkpt lat="47.66977" lon="-3.20687">
        <ele>4</ele>
        <time>2023-10-30T19:48:53Z</time>
      </trkpt>
      <trkpt lat="47.6701" lon="-3.20665">
        <ele>3</ele>
        <time>2023-10-30T19:49:42Z</time>
      </trkpt>
      <trkpt lat="47.67008" lon="-3.20638">
        <ele>2</ele>
        <time>2023-10-30T19:50:06Z</time>
      </trkpt>
      <trkpt lat="47.66997" lon="-3.20617">
        <ele>2</ele>
        <time>2023-10-30T19:50:30Z</time>
      </trkpt>
      <trkpt lat="47.66978" lon="-3.20613">
        <ele>3</ele>
        <time>2023-10-30T19:50:56Z</time>
      </trkpt>
      <trkpt lat="47.66975" lon="-3.20586">
        <ele>3</ele>
        <time>2023-10-30T19:51:20Z</time>
      </trkpt>
      <trkpt lat="47.66977" lon="-3.20559">
        <ele>3</ele>
        <time>2023-10-30T19:51:45Z</time>
      </trkpt>
      <trkpt lat="47.66995" lon="-3.2051">
        <ele>1</ele>
        <time>2023-10-30T19:52:35Z</time>
      </trkpt>
      <trkpt lat="47.66977" lon="-3.20505">
        <ele>2</ele>
        <time>2023-10-30T19:52:59Z</time>
      </trkpt>
      <trkpt lat="47.66958" lon="-3.20507">
        <ele>3</ele>
        <time>2023-10-30T19:53:25Z</time>
      </trkpt>
      <trkpt lat="47.6694" lon="-3.20504">
        <ele>4</ele>
        <time>2023-10-30T19:53:49Z</time>
      </trkpt>
      <trkpt lat="47.66925" lon="-3.20488">
        <ele>4</ele>
        <time>2023-10-30T19:54:13Z</time>
      </trkpt>
      <trkpt lat="47.66912" lon="-3.20467">
        <ele>4</ele>
        <time>2023-10-30T19:54:39Z</time>
      </trkpt>
      <trkpt lat="47.66908" lon="-3.2044">
        <ele>4</ele>
        <time>2023-10-30T19:55:04Z</time>
      </trkpt>
      <trkpt lat="47.66922" lon="-3.20422">
        <ele>3</ele>
        <time>2023-10-30T19:55:29Z</time>
      </trkpt>
      <trkpt lat="47.66957" lon="-3.20358">
        <ele>2</ele>
        <time>2023-10-30T19:56:43Z</time>
      </trkpt>
      <trkpt lat="47.66973" lon="-3.20346">
        <ele>2</ele>
        <time>2023-10-30T19:57:07Z</time>
      </trkpt>
      <trkpt lat="47.66991" lon="-3.20338">
        <ele>1</ele>
        <time>2023-10-30T19:57:32Z</time>
      </trkpt>
      <trkpt lat="47.6701" lon="-3.20343">
        <ele>1</ele>
        <time>2023-10-30T19:57:57Z</time>
      </trkpt>
      <trkpt lat="47.67023" lon="-3.20323">
        <ele>1</ele>
        <time>2023-10-30T19:58:22Z</time>
      </trkpt>
      <trkpt lat="47.67014" lon="-3.20299">
        <ele>1</ele>
        <time>2023-10-30T19:58:47Z</time>
      </trkpt>
      <trkpt lat="47.66996" lon="-3.2022">
        <ele>2</ele>
        <time>2023-10-30T20:00:02Z</time>
      </trkpt>
      <trkpt lat="47.66993" lon="-3.20194">
        <ele>2</ele>
        <time>2023-10-30T20:00:26Z</time>
      </trkpt>
      <trkpt lat="47.66995" lon="-3.20166">
        <ele>1</ele>
        <time>2023-10-30T20:00:51Z</time>
      </trkpt>
      <trkpt lat="47.67002" lon="-3.20141">
        <ele>2</ele>
        <time>2023-10-30T20:01:15Z</time>
      </trkpt>
      <trkpt lat="47.6702" lon="-3.20141">
        <ele>2</ele>
        <time>2023-10-30T20:01:39Z</time>
      </trkpt>
      <trkpt lat="47.67038" lon="-3.20145">
        <ele>2</ele>
        <time>2023-10-30T20:02:04Z</time>
      </trkpt>
      <trkpt lat="47.67056" lon="-3.20141">
        <ele>3</ele>
        <time>2023-10-30T20:02:28Z</time>
      </trkpt>
      <trkpt lat="47.67074" lon="-3.2013">
        <ele>4</ele>
        <time>2023-10-30T20:02:54Z</time>
      </trkpt>
      <trkpt lat="47.67093" lon="-3.20134">
        <ele>4</ele>
        <time>2023-10-30T20:03:20Z</time>
      </trkpt>
      <trkpt lat="47.67107" lon="-3.20154">
        <ele>2</ele>
        <time>2023-10-30T20:03:46Z</time>
      </trkpt>
      <trkpt lat="47.67122" lon="-3.20169">
        <ele>2</ele>
        <time>2023-10-30T20:04:10Z</time>
      </trkpt>
      <trkpt lat="47.6714" lon="-3.20175">
        <ele>2</ele>
        <time>2023-10-30T20:04:34Z</time>
      </trkpt>
      <trkpt lat="47.67157" lon="-3.20188">
        <ele>2</ele>
        <time>2023-10-30T20:05:00Z</time>
      </trkpt>
      <trkpt lat="47.67175" lon="-3.20189">
        <ele>2</ele>
        <time>2023-10-30T20:05:24Z</time>
      </trkpt>
      <trkpt lat="47.67177" lon="-3.20161">
        <ele>3</ele>
        <time>2023-10-30T20:05:49Z</time>
      </trkpt>
      <trkpt lat="47.67171" lon="-3.20136">
        <ele>4</ele>
        <time>2023-10-30T20:06:13Z</time>
      </trkpt>
      <trkpt lat="47.6717" lon="-3.20108">
        <ele>4</ele>
        <time>2023-10-30T20:06:38Z</time>
      </trkpt>
      <trkpt lat="47.6716" lon="-3.20086">
        <ele>5</ele>
        <time>2023-10-30T20:07:02Z</time>
      </trkpt>
      <trkpt lat="47.67143" lon="-3.20074">
        <ele>6</ele>
        <time>2023-10-30T20:07:27Z</time>
      </trkpt>
      <trkpt lat="47.6708" lon="-3.19974">
        <ele>9</ele>
        <time>2023-10-30T20:09:30Z</time>
      </trkpt>
      <trkpt lat="47.67092" lon="-3.19952">
        <ele>8</ele>
        <time>2023-10-30T20:09:56Z</time>
      </trkpt>
      <trkpt lat="47.67121" lon="-3.19918">
        <ele>8</ele>
        <time>2023-10-30T20:10:45Z</time>
      </trkpt>
      <trkpt lat="47.67138" lon="-3.19906">
        <ele>9</ele>
        <time>2023-10-30T20:11:10Z</time>
      </trkpt>
      <trkpt lat="47.67152" lon="-3.19889">
        <ele>10</ele>
        <time>2023-10-30T20:11:34Z</time>
      </trkpt>
      <trkpt lat="47.67168" lon="-3.19903">
        <ele>9</ele>
        <time>2023-10-30T20:11:59Z</time>
      </trkpt>
      <trkpt lat="47.67183" lon="-3.19921">
        <ele>9</ele>
        <time>2023-10-30T20:12:25Z</time>
      </trkpt>
      <trkpt lat="47.67199" lon="-3.19933">
        <ele>8</ele>
        <time>2023-10-30T20:12:49Z</time>
      </trkpt>
      <trkpt lat="47.67214" lon="-3.19951">
        <ele>7</ele>
        <time>2023-10-30T20:13:14Z</time>
      </trkpt>
      <trkpt lat="47.67239" lon="-3.19911">
        <ele>9</ele>
        <time>2023-10-30T20:14:03Z</time>
      </trkpt>
      <trkpt lat="47.67255" lon="-3.19897">
        <ele>9</ele>
        <time>2023-10-30T20:14:28Z</time>
      </trkpt>
      <trkpt lat="47.67273" lon="-3.19893">
        <ele>7</ele>
        <time>2023-10-30T20:14:53Z</time>
      </trkpt>
      <trkpt lat="47.67287" lon="-3.19874">
        <ele>6</ele>
        <time>2023-10-30T20:15:18Z</time>
      </trkpt>
      <trkpt lat="47.67292" lon="-3.19848">
        <ele>6</ele>
        <time>2023-10-30T20:15:42Z</time>
      </trkpt>
      <trkpt lat="47.67312" lon="-3.19801">
        <ele>5</ele>
        <time>2023-10-30T20:16:32Z</time>
      </trkpt>
      <trkpt lat="47.67316" lon="-3.19774">
        <ele>6</ele>
        <time>2023-10-30T20:16:57Z</time>
      </trkpt>
      <trkpt lat="47.67327" lon="-3.19752">
        <ele>5</ele>
        <time>2023-10-30T20:17:22Z</time>
      </trkpt>
      <trkpt lat="47.67343" lon="-3.19738">
        <ele>6</ele>
        <time>2023-10-30T20:17:46Z</time>
      </trkpt>
      <trkpt lat="47.67399" lon="-3.1975">
        <ele>6</ele>
        <time>2023-10-30T20:19:02Z</time>
      </trkpt>
      <trkpt lat="47.67416" lon="-3.19758">
        <ele>6</ele>
        <time>2023-10-30T20:19:26Z</time>
      </trkpt>
      <trkpt lat="47.67432" lon="-3.1977">
        <ele>5</ele>
        <time>2023-10-30T20:19:50Z</time>
      </trkpt>
      <trkpt lat="47.6744" lon="-3.19795">
        <ele>4</ele>
        <time>2023-10-30T20:20:14Z</time>
      </trkpt>
      <trkpt lat="47.67435" lon="-3.1985">
        <ele>2</ele>
        <time>2023-10-30T20:21:04Z</time>
      </trkpt>
      <trkpt lat="47.67464" lon="-3.19885">
        <ele>2</ele>
        <time>2023-10-30T20:21:54Z</time>
      </trkpt>
      <trkpt lat="47.675" lon="-3.19899">
        <ele>3</ele>
        <time>2023-10-30T20:22:44Z</time>
      </trkpt>
      <trkpt lat="47.67514" lon="-3.19919">
        <ele>2</ele>
        <time>2023-10-30T20:23:10Z</time>
      </trkpt>
      <trkpt lat="47.6755" lon="-3.19935">
        <ele>1</ele>
        <time>2023-10-30T20:24:00Z</time>
      </trkpt>
      <trkpt lat="47.67605" lon="-3.19927">
        <ele>5.4</ele>
        <time>2023-10-30T20:25:14Z</time>
      </trkpt>
      <trkpt lat="47.67622" lon="-3.1992">
        <ele>4.43</ele>
        <time>2023-10-30T20:25:37Z</time>
      </trkpt>
      <trkpt lat="47.67639" lon="-3.19906">
        <ele>2.4</ele>
        <time>2023-10-30T20:26:03Z</time>
      </trkpt>
      <trkpt lat="47.67638" lon="-3.19878">
        <ele>1</ele>
        <time>2023-10-30T20:26:28Z</time>
      </trkpt>
      <trkpt lat="47.67626" lon="-3.19798">
        <ele>3</ele>
        <time>2023-10-30T20:27:42Z</time>
      </trkpt>
      <trkpt lat="47.67624" lon="-3.19771">
        <ele>3</ele>
        <time>2023-10-30T20:28:06Z</time>
      </trkpt>
      <trkpt lat="47.67623" lon="-3.19743">
        <ele>3</ele>
        <time>2023-10-30T20:28:32Z</time>
      </trkpt>
      <trkpt lat="47.67628" lon="-3.19715">
        <ele>4</ele>
        <time>2023-10-30T20:28:58Z</time>
      </trkpt>
      <trkpt lat="47.67623" lon="-3.19688">
        <ele>4</ele>
        <time>2023-10-30T20:29:23Z</time>
      </trkpt>
      <trkpt lat="47.67609" lon="-3.19638">
        <ele>6</ele>
        <time>2023-10-30T20:30:11Z</time>
      </trkpt>
      <trkpt lat="47.67605" lon="-3.19611">
        <ele>6</ele>
        <time>2023-10-30T20:30:36Z</time>
      </trkpt>
      <trkpt lat="47.67618" lon="-3.19591">
        <ele>6</ele>
        <time>2023-10-30T20:31:01Z</time>
      </trkpt>
      <trkpt lat="47.67633" lon="-3.19574">
        <ele>6</ele>
        <time>2023-10-30T20:31:26Z</time>
      </trkpt>
      <trkpt lat="47.67667" lon="-3.19552">
        <ele>6</ele>
        <time>2023-10-30T20:32:16Z</time>
      </trkpt>
      <trkpt lat="47.67685" lon="-3.19545">
        <ele>6</ele>
        <time>2023-10-30T20:32:41Z</time>
      </trkpt>
      <trkpt lat="47.67703" lon="-3.19542">
        <ele>6</ele>
        <time>2023-10-30T20:33:05Z</time>
      </trkpt>
      <trkpt lat="47.6774" lon="-3.19545">
        <ele>6</ele>
        <time>2023-10-30T20:33:54Z</time>
      </trkpt>
      <trkpt lat="47.67758" lon="-3.19539">
        <ele>6</ele>
        <time>2023-10-30T20:34:19Z</time>
      </trkpt>
      <trkpt lat="47.67768" lon="-3.19516">
        <ele>7</ele>
        <time>2023-10-30T20:34:44Z</time>
      </trkpt>
      <trkpt lat="47.67774" lon="-3.1949">
        <ele>8</ele>
        <time>2023-10-30T20:35:08Z</time>
      </trkpt>
      <trkpt lat="47.67771" lon="-3.19464">
        <ele>9</ele>
        <time>2023-10-30T20:35:32Z</time>
      </trkpt>
      <trkpt lat="47.67762" lon="-3.19439">
        <ele>10</ele>
        <time>2023-10-30T20:35:57Z</time>
      </trkpt>
      <trkpt lat="47.67751" lon="-3.19417">
        <ele>11</ele>
        <time>2023-10-30T20:36:22Z</time>
      </trkpt>
      <trkpt lat="47.67732" lon="-3.19413">
        <ele>10</ele>
        <time>2023-10-30T20:36:48Z</time>
      </trkpt>
      <trkpt lat="47.67739" lon="-3.19388">
        <ele>10</ele>
        <time>2023-10-30T20:37:12Z</time>
      </trkpt>
      <trkpt lat="47.67756" lon="-3.19379">
        <ele>10</ele>
        <time>2023-10-30T20:37:36Z</time>
      </trkpt>
      <trkpt lat="47.67762" lon="-3.19353">
        <ele>10</ele>
        <time>2023-10-30T20:38:01Z</time>
      </trkpt>
      <trkpt lat="47.67747" lon="-3.19336">
        <ele>10</ele>
        <time>2023-10-30T20:38:26Z</time>
      </trkpt>
      <trkpt lat="47.67739" lon="-3.19312">
        <ele>10</ele>
        <time>2023-10-30T20:38:50Z</time>
      </trkpt>
      <trkpt lat="47.67729" lon="-3.19258">
        <ele>10</ele>
        <time>2023-10-30T20:39:40Z</time>
      </trkpt>
      <trkpt lat="47.67724" lon="-3.19203">
        <ele>11</ele>
        <time>2023-10-30T20:40:30Z</time>
      </trkpt>
      <trkpt lat="47.67717" lon="-3.19178">
        <ele>11</ele>
        <time>2023-10-30T20:40:54Z</time>
      </trkpt>
      <trkpt lat="47.67707" lon="-3.19155">
        <ele>11</ele>
        <time>2023-10-30T20:41:19Z</time>
      </trkpt>
      <trkpt lat="47.67694" lon="-3.19136">
        <ele>11</ele>
        <time>2023-10-30T20:41:43Z</time>
      </trkpt>
      <trkpt lat="47.67651" lon="-3.19084">
        <ele>11</ele>
        <time>2023-10-30T20:42:57Z</time>
      </trkpt>
      <trkpt lat="47.67633" lon="-3.19038">
        <ele>11</ele>
        <time>2023-10-30T20:43:45Z</time>
      </trkpt>
      <trkpt lat="47.67642" lon="-3.19015">
        <ele>11</ele>
        <time>2023-10-30T20:44:09Z</time>
      </trkpt>
      <trkpt lat="47.67658" lon="-3.18999">
        <ele>10</ele>
        <time>2023-10-30T20:44:35Z</time>
      </trkpt>
      <trkpt lat="47.6767" lon="-3.18978">
        <ele>10</ele>
        <time>2023-10-30T20:45:00Z</time>
      </trkpt>
      <trkpt lat="47.67667" lon="-3.18951">
        <ele>9</ele>
        <time>2023-10-30T20:45:24Z</time>
      </trkpt>
      <trkpt lat="47.6767" lon="-3.18896">
        <ele>9</ele>
        <time>2023-10-30T20:46:14Z</time>
      </trkpt>
      <trkpt lat="47.67678" lon="-3.18844">
        <ele>7</ele>
        <time>2023-10-30T20:47:02Z</time>
      </trkpt>
      <trkpt lat="47.67685" lon="-3.18817">
        <ele>6</ele>
        <time>2023-10-30T20:47:28Z</time>
      </trkpt>
      <trkpt lat="47.67694" lon="-3.18794">
        <ele>6</ele>
        <time>2023-10-30T20:47:52Z</time>
      </trkpt>
      <trkpt lat="47.6771" lon="-3.18779">
        <ele>4</ele>
        <time>2023-10-30T20:48:17Z</time>
      </trkpt>
      <trkpt lat="47.67785" lon="-3.18781">
        <ele>2</ele>
        <time>2023-10-30T20:49:57Z</time>
      </trkpt>
      <trkpt lat="47.67821" lon="-3.18792">
        <ele>2</ele>
        <time>2023-10-30T20:50:46Z</time>
      </trkpt>
      <trkpt lat="47.6784" lon="-3.18793">
        <ele>2</ele>
        <time>2023-10-30T20:51:11Z</time>
      </trkpt>
      <trkpt lat="47.6793" lon="-3.18809">
        <ele>5</ele>
        <time>2023-10-30T20:53:12Z</time>
      </trkpt>
      <trkpt lat="47.67948" lon="-3.18815">
        <ele>6</ele>
        <time>2023-10-30T20:53:37Z</time>
      </trkpt>
      <trkpt lat="47.67967" lon="-3.18816">
        <ele>6</ele>
        <time>2023-10-30T20:54:02Z</time>
      </trkpt>
      <trkpt lat="47.67985" lon="-3.18814">
        <ele>7</ele>
        <time>2023-10-30T20:54:26Z</time>
      </trkpt>
      <trkpt lat="47.68039" lon="-3.18791">
        <ele>10</ele>
        <time>2023-10-30T20:55:41Z</time>
      </trkpt>
      <trkpt lat="47.68058" lon="-3.1879">
        <ele>10</ele>
        <time>2023-10-30T20:56:07Z</time>
      </trkpt>
      <trkpt lat="47.68072" lon="-3.18808">
        <ele>9</ele>
        <time>2023-10-30T20:56:31Z</time>
      </trkpt>
      <trkpt lat="47.68102" lon="-3.18909">
        <ele>6</ele>
        <time>2023-10-30T20:58:11Z</time>
      </trkpt>
      <trkpt lat="47.68093" lon="-3.18989">
        <ele>5</ele>
        <time>2023-10-30T20:59:24Z</time>
      </trkpt>
      <trkpt lat="47.68094" lon="-3.19016">
        <ele>4</ele>
        <time>2023-10-30T20:59:48Z</time>
      </trkpt>
      <trkpt lat="47.68102" lon="-3.19069">
        <ele>2</ele>
        <time>2023-10-30T21:00:37Z</time>
      </trkpt>
      <trkpt lat="47.68098" lon="-3.19043">
        <ele>3</ele>
        <time>2023-10-30T21:01:01Z</time>
      </trkpt>
      <trkpt lat="47.68096" lon="-3.18989">
        <ele>5</ele>
        <time>2023-10-30T21:01:49Z</time>
      </trkpt>
      <trkpt lat="47.68114" lon="-3.18984">
        <ele>5</ele>
        <time>2023-10-30T21:02:14Z</time>
      </trkpt>
      <trkpt lat="47.6815" lon="-3.18983">
        <ele>6</ele>
        <time>2023-10-30T21:03:02Z</time>
      </trkpt>
      <trkpt lat="47.68169" lon="-3.18987">
        <ele>6</ele>
        <time>2023-10-30T21:03:27Z</time>
      </trkpt>
      <trkpt lat="47.68188" lon="-3.18984">
        <ele>5</ele>
        <time>2023-10-30T21:03:53Z</time>
      </trkpt>
      <trkpt lat="47.68254" lon="-3.18936">
        <ele>5</ele>
        <time>2023-10-30T21:05:31Z</time>
      </trkpt>
      <trkpt lat="47.68285" lon="-3.18908">
        <ele>4</ele>
        <time>2023-10-30T21:06:19Z</time>
      </trkpt>
      <trkpt lat="47.68299" lon="-3.1889">
        <ele>3</ele>
        <time>2023-10-30T21:06:44Z</time>
      </trkpt>
      <trkpt lat="47.68313" lon="-3.18809">
        <ele>3</ele>
        <time>2023-10-30T21:07:59Z</time>
      </trkpt>
      <trkpt lat="47.6832" lon="-3.18783">
        <ele>4</ele>
        <time>2023-10-30T21:08:24Z</time>
      </trkpt>
      <trkpt lat="47.68343" lon="-3.1874">
        <ele>5</ele>
        <time>2023-10-30T21:09:14Z</time>
      </trkpt>
      <trkpt lat="47.68374" lon="-3.18708">
        <ele>3</ele>
        <time>2023-10-30T21:10:04Z</time>
      </trkpt>
      <trkpt lat="47.68407" lon="-3.18681">
        <ele>1</ele>
        <time>2023-10-30T21:10:54Z</time>
      </trkpt>
      <trkpt lat="47.68425" lon="-3.18673">
        <ele>1</ele>
        <time>2023-10-30T21:11:19Z</time>
      </trkpt>
      <trkpt lat="47.68442" lon="-3.1866">
        <ele>1</ele>
        <time>2023-10-30T21:11:45Z</time>
      </trkpt>
      <trkpt lat="47.68503" lon="-3.18594">
        <ele>1</ele>
        <time>2023-10-30T21:13:26Z</time>
      </trkpt>
      <trkpt lat="47.68517" lon="-3.18542">
        <ele>1</ele>
        <time>2023-10-30T21:14:16Z</time>
      </trkpt>
      <trkpt lat="47.68518" lon="-3.18515">
        <ele>2</ele>
        <time>2023-10-30T21:14:40Z</time>
      </trkpt>
      <trkpt lat="47.6853" lon="-3.18551">
        <ele>1</ele>
        <time>2023-10-30T21:15:16Z</time>
      </trkpt>
      <trkpt lat="47.68548" lon="-3.18555">
        <ele>1</ele>
        <time>2023-10-30T21:15:41Z</time>
      </trkpt>
      <trkpt lat="47.68585" lon="-3.18552">
        <ele>1</ele>
        <time>2023-10-30T21:16:30Z</time>
      </trkpt>
      <trkpt lat="47.68641" lon="-3.18538">
        <ele>3</ele>
        <time>2023-10-30T21:17:46Z</time>
      </trkpt>
      <trkpt lat="47.68645" lon="-3.18511">
        <ele>4</ele>
        <time>2023-10-30T21:18:11Z</time>
      </trkpt>
      <trkpt lat="47.6864" lon="-3.18485">
        <ele>4</ele>
        <time>2023-10-30T21:18:35Z</time>
      </trkpt>
      <trkpt lat="47.68645" lon="-3.18459">
        <ele>4</ele>
        <time>2023-10-30T21:18:59Z</time>
      </trkpt>
      <trkpt lat="47.68645" lon="-3.18432">
        <ele>3</ele>
        <time>2023-10-30T21:19:23Z</time>
      </trkpt>
      <trkpt lat="47.68659" lon="-3.18416">
        <ele>4</ele>
        <time>2023-10-30T21:19:47Z</time>
      </trkpt>
      <trkpt lat="47.6867" lon="-3.18393">
        <ele>3</ele>
        <time>2023-10-30T21:20:12Z</time>
      </trkpt>
      <trkpt lat="47.68685" lon="-3.18376">
        <ele>2</ele>
        <time>2023-10-30T21:20:38Z</time>
      </trkpt>
      <trkpt lat="47.68661" lon="-3.18418">
        <ele>4</ele>
        <time>2023-10-30T21:21:27Z</time>
      </trkpt>
      <trkpt lat="47.68662" lon="-3.18409">
        <ele>3</ele>
        <time>2023-10-30T21:21:35Z</time>
      </trkpt>
      <trkpt lat="47.68688" lon="-3.1837">
        <ele>1</ele>
        <time>2023-10-30T21:22:25Z</time>
      </trkpt>
      <trkpt lat="47.68707" lon="-3.18376">
        <ele>1</ele>
        <time>2023-10-30T21:22:50Z</time>
      </trkpt>
      <trkpt lat="47.68723" lon="-3.18389">
        <ele>1</ele>
        <time>2023-10-30T21:23:15Z</time>
      </trkpt>
      <trkpt lat="47.68742" lon="-3.18389">
        <ele>1</ele>
        <time>2023-10-30T21:23:40Z</time>
      </trkpt>
      <trkpt lat="47.68759" lon="-3.18397">
        <ele>1</ele>
        <time>2023-10-30T21:24:04Z</time>
      </trkpt>
      <trkpt lat="47.68767" lon="-3.18423">
        <ele>1</ele>
        <time>2023-10-30T21:24:30Z</time>
      </trkpt>
      <trkpt lat="47.68778" lon="-3.18445">
        <ele>1</ele>
        <time>2023-10-30T21:24:54Z</time>
      </trkpt>
      <trkpt lat="47.68796" lon="-3.18453">
        <ele>1</ele>
        <time>2023-10-30T21:25:19Z</time>
      </trkpt>
      <trkpt lat="47.68805" lon="-3.18478">
        <ele>1</ele>
        <time>2023-10-30T21:25:45Z</time>
      </trkpt>
      <trkpt lat="47.68806" lon="-3.18505">
        <ele>1</ele>
        <time>2023-10-30T21:26:09Z</time>
      </trkpt>
      <trkpt lat="47.68802" lon="-3.1856">
        <ele>1</ele>
        <time>2023-10-30T21:26:59Z</time>
      </trkpt>
      <trkpt lat="47.68796" lon="-3.18587">
        <ele>1</ele>
        <time>2023-10-30T21:27:24Z</time>
      </trkpt>
      <trkpt lat="47.68784" lon="-3.18607">
        <ele>1</ele>
        <time>2023-10-30T21:27:48Z</time>
      </trkpt>
      <trkpt lat="47.68766" lon="-3.18612">
        <ele>1</ele>
        <time>2023-10-30T21:28:13Z</time>
      </trkpt>
      <trkpt lat="47.6869" lon="-3.18596">
        <ele>2</ele>
        <time>2023-10-30T21:29:55Z</time>
      </trkpt>
      <trkpt lat="47.68673" lon="-3.18585">
        <ele>2</ele>
        <time>2023-10-30T21:30:20Z</time>
      </trkpt>
      <trkpt lat="47.68644" lon="-3.18551">
        <ele>3</ele>
        <time>2023-10-30T21:31:09Z</time>
      </trkpt>
      <trkpt lat="47.68625" lon="-3.18547">
        <ele>2</ele>
        <time>2023-10-30T21:31:35Z</time>
      </trkpt>
      <trkpt lat="47.6857" lon="-3.18561">
        <ele>2</ele>
        <time>2023-10-30T21:32:49Z</time>
      </trkpt>
      <trkpt lat="47.68551" lon="-3.18563">
        <ele>1</ele>
        <time>2023-10-30T21:33:15Z</time>
      </trkpt>
      <trkpt lat="47.68533" lon="-3.18557">
        <ele>1</ele>
        <time>2023-10-30T21:33:39Z</time>
      </trkpt>
      <trkpt lat="47.68522" lon="-3.18535">
        <ele>1</ele>
        <time>2023-10-30T21:34:04Z</time>
      </trkpt>
      <trkpt lat="47.68517" lon="-3.18509">
        <ele>2</ele>
        <time>2023-10-30T21:34:28Z</time>
      </trkpt>
      <trkpt lat="47.68504" lon="-3.18491">
        <ele>2</ele>
        <time>2023-10-30T21:34:52Z</time>
      </trkpt>
      <trkpt lat="47.68488" lon="-3.18475">
        <ele>2</ele>
        <time>2023-10-30T21:35:18Z</time>
      </trkpt>
      <trkpt lat="47.6848" lon="-3.1845">
        <ele>2</ele>
        <time>2023-10-30T21:35:43Z</time>
      </trkpt>
      <trkpt lat="47.68477" lon="-3.18423">
        <ele>2</ele>
        <time>2023-10-30T21:36:07Z</time>
      </trkpt>
      <trkpt lat="47.68465" lon="-3.18402">
        <ele>2</ele>
        <time>2023-10-30T21:36:32Z</time>
      </trkpt>
      <trkpt lat="47.6845" lon="-3.18385">
        <ele>2</ele>
        <time>2023-10-30T21:36:57Z</time>
      </trkpt>
      <trkpt lat="47.68425" lon="-3.18342">
        <ele>2</ele>
        <time>2023-10-30T21:37:48Z</time>
      </trkpt>
      <trkpt lat="47.68406" lon="-3.18338">
        <ele>2</ele>
        <time>2023-10-30T21:38:14Z</time>
      </trkpt>
      <trkpt lat="47.6837" lon="-3.18342">
        <ele>2</ele>
        <time>2023-10-30T21:39:02Z</time>
      </trkpt>
      <trkpt lat="47.68352" lon="-3.18334">
        <ele>2</ele>
        <time>2023-10-30T21:39:27Z</time>
      </trkpt>
      <trkpt lat="47.68337" lon="-3.18318">
        <ele>2</ele>
        <time>2023-10-30T21:39:52Z</time>
      </trkpt>
      <trkpt lat="47.68319" lon="-3.18323">
        <ele>2</ele>
        <time>2023-10-30T21:40:16Z</time>
      </trkpt>
      <trkpt lat="47.68301" lon="-3.18332">
        <ele>2</ele>
        <time>2023-10-30T21:40:41Z</time>
      </trkpt>
      <trkpt lat="47.68284" lon="-3.18345">
        <ele>3</ele>
        <time>2023-10-30T21:41:07Z</time>
      </trkpt>
      <trkpt lat="47.6824" lon="-3.18393">
        <ele>3</ele>
        <time>2023-10-30T21:42:20Z</time>
      </trkpt>
      <trkpt lat="47.68235" lon="-3.18448">
        <ele>4</ele>
        <time>2023-10-30T21:43:10Z</time>
      </trkpt>
      <trkpt lat="47.68217" lon="-3.18442">
        <ele>4</ele>
        <time>2023-10-30T21:43:34Z</time>
      </trkpt>
      <trkpt lat="47.68165" lon="-3.1841">
        <ele>5</ele>
        <time>2023-10-30T21:44:49Z</time>
      </trkpt>
      <trkpt lat="47.68133" lon="-3.18383">
        <ele>6</ele>
        <time>2023-10-30T21:45:39Z</time>
      </trkpt>
      <trkpt lat="47.6807" lon="-3.18321">
        <ele>7</ele>
        <time>2023-10-30T21:47:19Z</time>
      </trkpt>
      <trkpt lat="47.68054" lon="-3.18308">
        <ele>8</ele>
        <time>2023-10-30T21:47:44Z</time>
      </trkpt>
      <trkpt lat="47.68056" lon="-3.18281">
        <ele>8</ele>
        <time>2023-10-30T21:48:08Z</time>
      </trkpt>
      <trkpt lat="47.6808" lon="-3.18206">
        <ele>8</ele>
        <time>2023-10-30T21:49:23Z</time>
      </trkpt>
      <trkpt lat="47.68133" lon="-3.1806">
        <ele>3</ele>
        <time>2023-10-30T21:51:52Z</time>
      </trkpt>
      <trkpt lat="47.68147" lon="-3.18008">
        <ele>1</ele>
        <time>2023-10-30T21:52:42Z</time>
      </trkpt>
      <trkpt lat="47.68155" lon="-3.17954">
        <ele>1</ele>
        <time>2023-10-30T21:53:32Z</time>
      </trkpt>
      <trkpt lat="47.68156" lon="-3.17926">
        <ele>1</ele>
        <time>2023-10-30T21:53:57Z</time>
      </trkpt>
      <trkpt lat="47.68149" lon="-3.17872">
        <ele>1</ele>
        <time>2023-10-30T21:54:46Z</time>
      </trkpt>
      <trkpt lat="47.6813" lon="-3.17795">
        <ele>3.6</ele>
        <time>2023-10-30T21:56:00Z</time>
      </trkpt>
      <trkpt lat="47.68128" lon="-3.17741">
        <ele>2.7</ele>
        <time>2023-10-30T21:56:49Z</time>
      </trkpt>
      <trkpt lat="47.68131" lon="-3.17713">
        <ele>1.7</ele>
        <time>2023-10-30T21:57:14Z</time>
      </trkpt>
      <trkpt lat="47.68123" lon="-3.17688">
        <ele>1</ele>
        <time>2023-10-30T21:57:39Z</time>
      </trkpt>
      <trkpt lat="47.68127" lon="-3.17577">
        <ele>4</ele>
        <time>2023-10-30T21:59:19Z</time>
      </trkpt>
      <trkpt lat="47.68134" lon="-3.17494">
        <ele>8</ele>
        <time>2023-10-30T22:00:34Z</time>
      </trkpt>
      <trkpt lat="47.68133" lon="-3.17465">
        <ele>10</ele>
        <time>2023-10-30T22:01:00Z</time>
      </trkpt>
      <trkpt lat="47.68139" lon="-3.17411">
        <ele>12</ele>
        <time>2023-10-30T22:01:49Z</time>
      </trkpt>
      <trkpt lat="47.68149" lon="-3.17357">
        <ele>11</ele>
        <time>2023-10-30T22:02:40Z</time>
      </trkpt>
      <trkpt lat="47.68148" lon="-3.17302">
        <ele>9</ele>
        <time>2023-10-30T22:03:29Z</time>
      </trkpt>
      <trkpt lat="47.68185" lon="-3.17296">
        <ele>8</ele>
        <time>2023-10-30T22:04:19Z</time>
      </trkpt>
      <trkpt lat="47.68204" lon="-3.17297">
        <ele>7</ele>
        <time>2023-10-30T22:04:44Z</time>
      </trkpt>
      <trkpt lat="47.6822" lon="-3.17284">
        <ele>5</ele>
        <time>2023-10-30T22:05:08Z</time>
      </trkpt>
      <trkpt lat="47.68245" lon="-3.17245">
        <ele>3</ele>
        <time>2023-10-30T22:05:57Z</time>
      </trkpt>
      <trkpt lat="47.6825" lon="-3.17219">
        <ele>3</ele>
        <time>2023-10-30T22:06:21Z</time>
      </trkpt>
      <trkpt lat="47.68235" lon="-3.17204">
        <ele>3</ele>
        <time>2023-10-30T22:06:45Z</time>
      </trkpt>
      <trkpt lat="47.68239" lon="-3.17177">
        <ele>3</ele>
        <time>2023-10-30T22:07:10Z</time>
      </trkpt>
      <trkpt lat="47.68246" lon="-3.17151">
        <ele>2</ele>
        <time>2023-10-30T22:07:35Z</time>
      </trkpt>
      <trkpt lat="47.68242" lon="-3.17125">
        <ele>1</ele>
        <time>2023-10-30T22:07:59Z</time>
      </trkpt>
      <trkpt lat="47.68213" lon="-3.1709">
        <ele>2</ele>
        <time>2023-10-30T22:08:49Z</time>
      </trkpt>
      <trkpt lat="47.682" lon="-3.17069">
        <ele>2</ele>
        <time>2023-10-30T22:09:15Z</time>
      </trkpt>
      <trkpt lat="47.68193" lon="-3.17044">
        <ele>2</ele>
        <time>2023-10-30T22:09:39Z</time>
      </trkpt>
      <trkpt lat="47.6819" lon="-3.17017">
        <ele>2</ele>
        <time>2023-10-30T22:10:03Z</time>
      </trkpt>
      <trkpt lat="47.68181" lon="-3.16993">
        <ele>2</ele>
        <time>2023-10-30T22:10:28Z</time>
      </trkpt>
      <trkpt lat="47.68177" lon="-3.16966">
        <ele>2</ele>
        <time>2023-10-30T22:10:53Z</time>
      </trkpt>
      <trkpt lat="47.68183" lon="-3.16941">
        <ele>2</ele>
        <time>2023-10-30T22:11:17Z</time>
      </trkpt>
      <trkpt lat="47.6817" lon="-3.16921">
        <ele>2</ele>
        <time>2023-10-30T22:11:42Z</time>
      </trkpt>
      <trkpt lat="47.68163" lon="-3.16896">
        <ele>2</ele>
        <time>2023-10-30T22:12:06Z</time>
      </trkpt>
      <trkpt lat="47.68153" lon="-3.16873">
        <ele>1</ele>
        <time>2023-10-30T22:12:31Z</time>
      </trkpt>
      <trkpt lat="47.68135" lon="-3.16862">
        <ele>1</ele>
        <time>2023-10-30T22:12:57Z</time>
      </trkpt>
      <trkpt lat="47.68122" lon="-3.16843">
        <ele>1</ele>
        <time>2023-10-30T22:13:21Z</time>
      </trkpt>
      <trkpt lat="47.68107" lon="-3.16827">
        <ele>1</ele>
        <time>2023-10-30T22:13:46Z</time>
      </trkpt>
      <trkpt lat="47.68069" lon="-3.16825">
        <ele>1</ele>
        <time>2023-10-30T22:14:36Z</time>
      </trkpt>
      <trkpt lat="47.68053" lon="-3.16812">
        <ele>2</ele>
        <time>2023-10-30T22:15:01Z</time>
      </trkpt>
      <trkpt lat="47.68048" lon="-3.16758">
        <ele>1</ele>
        <time>2023-10-30T22:15:50Z</time>
      </trkpt>
      <trkpt lat="47.68056" lon="-3.16811">
        <ele>2</ele>
        <time>2023-10-30T22:16:39Z</time>
      </trkpt>
      <trkpt lat="47.68038" lon="-3.16821">
        <ele>2</ele>
        <time>2023-10-30T22:17:04Z</time>
      </trkpt>
      <trkpt lat="47.68002" lon="-3.16826">
        <ele>4</ele>
        <time>2023-10-30T22:17:52Z</time>
      </trkpt>
      <trkpt lat="47.67987" lon="-3.1684">
        <ele>4</ele>
        <time>2023-10-30T22:18:16Z</time>
      </trkpt>
      <trkpt lat="47.67973" lon="-3.1686">
        <ele>5</ele>
        <time>2023-10-30T22:18:42Z</time>
      </trkpt>
      <trkpt lat="47.67964" lon="-3.16884">
        <ele>5</ele>
        <time>2023-10-30T22:19:07Z</time>
      </trkpt>
      <trkpt lat="47.67938" lon="-3.16924">
        <ele>6</ele>
        <time>2023-10-30T22:19:57Z</time>
      </trkpt>
      <trkpt lat="47.67921" lon="-3.16938">
        <ele>6</ele>
        <time>2023-10-30T22:20:23Z</time>
      </trkpt>
      <trkpt lat="47.67867" lon="-3.16956">
        <ele>7</ele>
        <time>2023-10-30T22:21:36Z</time>
      </trkpt>
      <trkpt lat="47.67848" lon="-3.16959">
        <ele>6</ele>
        <time>2023-10-30T22:22:02Z</time>
      </trkpt>
      <trkpt lat="47.6783" lon="-3.16956">
        <ele>7</ele>
        <time>2023-10-30T22:22:26Z</time>
      </trkpt>
      <trkpt lat="47.67803" lon="-3.1692">
        <ele>8</ele>
        <time>2023-10-30T22:23:15Z</time>
      </trkpt>
      <trkpt lat="47.67768" lon="-3.16928">
        <ele>9</ele>
        <time>2023-10-30T22:24:02Z</time>
      </trkpt>
      <trkpt lat="47.67751" lon="-3.16939">
        <ele>10</ele>
        <time>2023-10-30T22:24:27Z</time>
      </trkpt>
      <trkpt lat="47.67714" lon="-3.16948">
        <ele>11</ele>
        <time>2023-10-30T22:25:17Z</time>
      </trkpt>
      <trkpt lat="47.67697" lon="-3.16937">
        <ele>12</ele>
        <time>2023-10-30T22:25:41Z</time>
      </trkpt>
      <trkpt lat="47.67686" lon="-3.16915">
        <ele>12</ele>
        <time>2023-10-30T22:26:06Z</time>
      </trkpt>
      <trkpt lat="47.6767" lon="-3.169">
        <ele>12</ele>
        <time>2023-10-30T22:26:31Z</time>
      </trkpt>
      <trkpt lat="47.67658" lon="-3.16879">
        <ele>11</ele>
        <time>2023-10-30T22:26:56Z</time>
      </trkpt>
      <trkpt lat="47.67641" lon="-3.16869">
        <ele>11</ele>
        <time>2023-10-30T22:27:20Z</time>
      </trkpt>
      <trkpt lat="47.67623" lon="-3.16877">
        <ele>10</ele>
        <time>2023-10-30T22:27:45Z</time>
      </trkpt>
      <trkpt lat="47.67609" lon="-3.1686">
        <ele>10</ele>
        <time>2023-10-30T22:28:10Z</time>
      </trkpt>
    </trkseg>
  </trk>
  <trk>
    <name><![CDATA[Etel_StCado2_14.2km-6224340]]></name>
    <extensions>
      <line xmlns="http://www.topografix.com/GPX/gpx_style/0/2">
        <color>00FF00</color>
        <width>4</width>
      </line>
    </extensions>
    <trkseg>
      <trkpt lat="47.68484" lon="-3.18606">
        <ele>1</ele>
        <time>2023-10-30T17:49:32Z</time>
      </trkpt>
      <trkpt lat="47.68416" lon="-3.1867">
        <ele>1</ele>
        <time>2023-10-30T17:51:19Z</time>
      </trkpt>
      <trkpt lat="47.68368" lon="-3.18704">
        <ele>3</ele>
        <time>2023-10-30T17:52:30Z</time>
      </trkpt>
      <trkpt lat="47.68328" lon="-3.18773">
        <ele>4</ele>
        <time>2023-10-30T17:53:52Z</time>
      </trkpt>
      <trkpt lat="47.68301" lon="-3.18882">
        <ele>3</ele>
        <time>2023-10-30T17:55:37Z</time>
      </trkpt>
      <trkpt lat="47.68223" lon="-3.18955">
        <ele>5</ele>
        <time>2023-10-30T17:57:40Z</time>
      </trkpt>
      <trkpt lat="47.68165" lon="-3.18979">
        <ele>6</ele>
        <time>2023-10-30T17:59:00Z</time>
      </trkpt>
      <trkpt lat="47.68108" lon="-3.18972">
        <ele>5</ele>
        <time>2023-10-30T18:00:16Z</time>
      </trkpt>
      <trkpt lat="47.68081" lon="-3.18797">
        <ele>10</ele>
        <time>2023-10-30T18:02:58Z</time>
      </trkpt>
      <trkpt lat="47.6798" lon="-3.18808">
        <ele>7</ele>
        <time>2023-10-30T18:05:13Z</time>
      </trkpt>
      <trkpt lat="47.6773" lon="-3.18779">
        <ele>3</ele>
        <time>2023-10-30T18:10:47Z</time>
      </trkpt>
      <trkpt lat="47.67694" lon="-3.18835">
        <ele>6</ele>
        <time>2023-10-30T18:11:57Z</time>
      </trkpt>
      <trkpt lat="47.67678" lon="-3.18907">
        <ele>8</ele>
        <time>2023-10-30T18:13:05Z</time>
      </trkpt>
      <trkpt lat="47.67688" lon="-3.18979">
        <ele>9</ele>
        <time>2023-10-30T18:14:11Z</time>
      </trkpt>
      <trkpt lat="47.67645" lon="-3.19024">
        <ele>11</ele>
        <time>2023-10-30T18:15:21Z</time>
      </trkpt>
      <trkpt lat="47.67659" lon="-3.19087">
        <ele>11</ele>
        <time>2023-10-30T18:16:21Z</time>
      </trkpt>
      <trkpt lat="47.67708" lon="-3.19145">
        <ele>11</ele>
        <time>2023-10-30T18:17:44Z</time>
      </trkpt>
      <trkpt lat="47.67766" lon="-3.19375">
        <ele>10</ele>
        <time>2023-10-30T18:21:25Z</time>
      </trkpt>
      <trkpt lat="47.67779" lon="-3.19545">
        <ele>6</ele>
        <time>2023-10-30T18:23:59Z</time>
      </trkpt>
      <trkpt lat="47.67677" lon="-3.19559">
        <ele>6</ele>
        <time>2023-10-30T18:26:16Z</time>
      </trkpt>
      <trkpt lat="47.67619" lon="-3.19595">
        <ele>6</ele>
        <time>2023-10-30T18:27:39Z</time>
      </trkpt>
      <trkpt lat="47.67626" lon="-3.19919">
        <ele>3.86</ele>
        <time>2023-10-30T18:32:31Z</time>
      </trkpt>
      <trkpt lat="47.67503" lon="-3.19897">
        <ele>3</ele>
        <time>2023-10-30T18:35:16Z</time>
      </trkpt>
      <trkpt lat="47.67457" lon="-3.19857">
        <ele>3</ele>
        <time>2023-10-30T18:36:27Z</time>
      </trkpt>
      <trkpt lat="47.67452" lon="-3.19766">
        <ele>5</ele>
        <time>2023-10-30T18:37:49Z</time>
      </trkpt>
      <trkpt lat="47.67395" lon="-3.19735">
        <ele>7</ele>
        <time>2023-10-30T18:39:10Z</time>
      </trkpt>
      <trkpt lat="47.67324" lon="-3.19734">
        <ele>7</ele>
        <time>2023-10-30T18:40:45Z</time>
      </trkpt>
      <trkpt lat="47.67242" lon="-3.19942">
        <ele>7</ele>
        <time>2023-10-30T18:44:22Z</time>
      </trkpt>
      <trkpt lat="47.67168" lon="-3.19891">
        <ele>10</ele>
        <time>2023-10-30T18:46:10Z</time>
      </trkpt>
      <trkpt lat="47.67116" lon="-3.19945">
        <ele>8</ele>
        <time>2023-10-30T18:47:35Z</time>
      </trkpt>
      <trkpt lat="47.67171" lon="-3.20082">
        <ele>5</ele>
        <time>2023-10-30T18:49:58Z</time>
      </trkpt>
      <trkpt lat="47.67174" lon="-3.20202">
        <ele>2</ele>
        <time>2023-10-30T18:51:46Z</time>
      </trkpt>
      <trkpt lat="47.67085" lon="-3.2012">
        <ele>5</ele>
        <time>2023-10-30T18:54:06Z</time>
      </trkpt>
      <trkpt lat="47.67023" lon="-3.20133">
        <ele>3</ele>
        <time>2023-10-30T18:55:30Z</time>
      </trkpt>
      <trkpt lat="47.66997" lon="-3.20223">
        <ele>2</ele>
        <time>2023-10-30T18:56:58Z</time>
      </trkpt>
      <trkpt lat="47.67036" lon="-3.2029">
        <ele>1</ele>
        <time>2023-10-30T18:58:17Z</time>
      </trkpt>
      <trkpt lat="47.67032" lon="-3.20327">
        <ele>1</ele>
        <time>2023-10-30T18:58:51Z</time>
      </trkpt>
      <trkpt lat="47.66962" lon="-3.20347">
        <ele>2</ele>
        <time>2023-10-30T19:00:26Z</time>
      </trkpt>
      <trkpt lat="47.66905" lon="-3.20457">
        <ele>4</ele>
        <time>2023-10-30T19:02:31Z</time>
      </trkpt>
      <trkpt lat="47.66951" lon="-3.20525">
        <ele>4</ele>
        <time>2023-10-30T19:03:57Z</time>
      </trkpt>
      <trkpt lat="47.66994" lon="-3.20524">
        <ele>1</ele>
        <time>2023-10-30T19:04:55Z</time>
      </trkpt>
      <trkpt lat="47.66977" lon="-3.20593">
        <ele>3</ele>
        <time>2023-10-30T19:06:01Z</time>
      </trkpt>
      <trkpt lat="47.6702" lon="-3.20657">
        <ele>2</ele>
        <time>2023-10-30T19:07:22Z</time>
      </trkpt>
      <trkpt lat="47.66983" lon="-3.20706">
        <ele>4</ele>
        <time>2023-10-30T19:08:28Z</time>
      </trkpt>
      <trkpt lat="47.66997" lon="-3.20837">
        <ele>1</ele>
        <time>2023-10-30T19:10:27Z</time>
      </trkpt>
      <trkpt lat="47.66873" lon="-3.20884">
        <ele>4</ele>
        <time>2023-10-30T19:13:18Z</time>
      </trkpt>
      <trkpt lat="47.66759" lon="-3.20867">
        <ele>3</ele>
        <time>2023-10-30T19:15:51Z</time>
      </trkpt>
      <trkpt lat="47.66688" lon="-3.20906">
        <ele>1</ele>
        <time>2023-10-30T19:17:32Z</time>
      </trkpt>
      <trkpt lat="47.66656" lon="-3.20796">
        <ele>5</ele>
        <time>2023-10-30T19:19:20Z</time>
      </trkpt>
      <trkpt lat="47.66708" lon="-3.20631">
        <ele>6</ele>
        <time>2023-10-30T19:22:04Z</time>
      </trkpt>
      <trkpt lat="47.66685" lon="-3.20535">
        <ele>6</ele>
        <time>2023-10-30T19:23:35Z</time>
      </trkpt>
      <trkpt lat="47.66671" lon="-3.20446">
        <ele>7</ele>
        <time>2023-10-30T19:24:57Z</time>
      </trkpt>
      <trkpt lat="47.66636" lon="-3.20427">
        <ele>6</ele>
        <time>2023-10-30T19:25:47Z</time>
      </trkpt>
      <trkpt lat="47.66601" lon="-3.20339">
        <ele>4</ele>
        <time>2023-10-30T19:27:19Z</time>
      </trkpt>
      <trkpt lat="47.66626" lon="-3.20281">
        <ele>5</ele>
        <time>2023-10-30T19:28:21Z</time>
      </trkpt>
      <trkpt lat="47.66634" lon="-3.20197">
        <ele>6</ele>
        <time>2023-10-30T19:29:37Z</time>
      </trkpt>
      <trkpt lat="47.66612" lon="-3.20112">
        <ele>6</ele>
        <time>2023-10-30T19:30:59Z</time>
      </trkpt>
      <trkpt lat="47.66574" lon="-3.20166">
        <ele>5</ele>
        <time>2023-10-30T19:32:09Z</time>
      </trkpt>
      <trkpt lat="47.66549" lon="-3.20255">
        <ele>3</ele>
        <time>2023-10-30T19:33:36Z</time>
      </trkpt>
      <trkpt lat="47.66525" lon="-3.20296">
        <ele>3</ele>
        <time>2023-10-30T19:34:24Z</time>
      </trkpt>
      <trkpt lat="47.66504" lon="-3.20241">
        <ele>3</ele>
        <time>2023-10-30T19:35:21Z</time>
      </trkpt>
      <trkpt lat="47.66479" lon="-3.20198">
        <ele>6</ele>
        <time>2023-10-30T19:36:12Z</time>
      </trkpt>
      <trkpt lat="47.66422" lon="-3.20056">
        <ele>5</ele>
        <time>2023-10-30T19:38:41Z</time>
      </trkpt>
      <trkpt lat="47.66499" lon="-3.19994">
        <ele>5</ele>
        <time>2023-10-30T19:40:38Z</time>
      </trkpt>
      <trkpt lat="47.66515" lon="-3.19932">
        <ele>5</ele>
        <time>2023-10-30T19:41:37Z</time>
      </trkpt>
      <trkpt lat="47.66451" lon="-3.19919">
        <ele>4</ele>
        <time>2023-10-30T19:43:04Z</time>
      </trkpt>
      <trkpt lat="47.66441" lon="-3.19706">
        <ele>7</ele>
        <time>2023-10-30T19:46:16Z</time>
      </trkpt>
      <trkpt lat="47.66395" lon="-3.19596">
        <ele>8</ele>
        <time>2023-10-30T19:48:12Z</time>
      </trkpt>
      <trkpt lat="47.66337" lon="-3.19528">
        <ele>7</ele>
        <time>2023-10-30T19:49:51Z</time>
      </trkpt>
      <trkpt lat="47.66332" lon="-3.19408">
        <ele>7</ele>
        <time>2023-10-30T19:51:39Z</time>
      </trkpt>
      <trkpt lat="47.66341" lon="-3.19324">
        <ele>7</ele>
        <time>2023-10-30T19:52:55Z</time>
      </trkpt>
      <trkpt lat="47.66304" lon="-3.19177">
        <ele>6</ele>
        <time>2023-10-30T19:55:16Z</time>
      </trkpt>
      <trkpt lat="47.66324" lon="-3.19106">
        <ele>5</ele>
        <time>2023-10-30T19:56:25Z</time>
      </trkpt>
      <trkpt lat="47.66513" lon="-3.19277">
        <ele>6</ele>
        <time>2023-10-30T20:01:21Z</time>
      </trkpt>
      <trkpt lat="47.66903" lon="-3.19299">
        <ele>9</ele>
        <time>2023-10-30T20:10:01Z</time>
      </trkpt>
      <trkpt lat="47.67056" lon="-3.19528">
        <ele>15</ele>
        <time>2023-10-30T20:14:51Z</time>
      </trkpt>
      <trkpt lat="47.67219" lon="-3.19133">
        <ele>12</ele>
        <time>2023-10-30T20:21:48Z</time>
      </trkpt>
      <trkpt lat="47.67224" lon="-3.19022">
        <ele>13</ele>
        <time>2023-10-30T20:23:28Z</time>
      </trkpt>
      <trkpt lat="47.67326" lon="-3.18889">
        <ele>12</ele>
        <time>2023-10-30T20:26:29Z</time>
      </trkpt>
      <trkpt lat="47.67416" lon="-3.18069">
        <ele>16</ele>
        <time>2023-10-30T20:38:55Z</time>
      </trkpt>
      <trkpt lat="47.6754" lon="-3.1802">
        <ele>12</ele>
        <time>2023-10-30T20:41:46Z</time>
      </trkpt>
      <trkpt lat="47.67697" lon="-3.18054">
        <ele>12</ele>
        <time>2023-10-30T20:45:18Z</time>
      </trkpt>
      <trkpt lat="47.67616" lon="-3.17838">
        <ele>7</ele>
        <time>2023-10-30T20:49:00Z</time>
      </trkpt>
      <trkpt lat="47.67608" lon="-3.17606">
        <ele>6</ele>
        <time>2023-10-30T20:52:29Z</time>
      </trkpt>
      <trkpt lat="47.67643" lon="-3.17406">
        <ele>10</ele>
        <time>2023-10-30T20:55:35Z</time>
      </trkpt>
      <trkpt lat="47.67612" lon="-3.17234">
        <ele>12</ele>
        <time>2023-10-30T20:58:15Z</time>
      </trkpt>
      <trkpt lat="47.67631" lon="-3.17124">
        <ele>11</ele>
        <time>2023-10-30T20:59:57Z</time>
      </trkpt>
      <trkpt lat="47.67639" lon="-3.16994">
        <ele>13</ele>
        <time>2023-10-30T21:01:54Z</time>
      </trkpt>
      <trkpt lat="47.67656" lon="-3.16884">
        <ele>11</ele>
        <time>2023-10-30T21:03:35Z</time>
      </trkpt>
      <trkpt lat="47.67551" lon="-3.16806">
        <ele>10</ele>
        <time>2023-10-30T21:06:12Z</time>
      </trkpt>
      <trkpt lat="47.67552" lon="-3.16717">
        <ele>11</ele>
        <time>2023-10-30T21:07:32Z</time>
      </trkpt>
      <trkpt lat="47.67547" lon="-3.16622">
        <ele>12</ele>
        <time>2023-10-30T21:08:58Z</time>
      </trkpt>
      <trkpt lat="47.67557" lon="-3.16462">
        <ele>14</ele>
        <time>2023-10-30T21:11:22Z</time>
      </trkpt>
      <trkpt lat="47.67682" lon="-3.16398">
        <ele>12</ele>
        <time>2023-10-30T21:14:19Z</time>
      </trkpt>
      <trkpt lat="47.67892" lon="-3.16359">
        <ele>10</ele>
        <time>2023-10-30T21:19:01Z</time>
      </trkpt>
      <trkpt lat="47.67965" lon="-3.16304">
        <ele>6</ele>
        <time>2023-10-30T21:20:50Z</time>
      </trkpt>
      <trkpt lat="47.68014" lon="-3.16224">
        <ele>4</ele>
        <time>2023-10-30T21:22:27Z</time>
      </trkpt>
      <trkpt lat="47.68" lon="-3.16368">
        <ele>4</ele>
        <time>2023-10-30T21:24:38Z</time>
      </trkpt>
      <trkpt lat="47.68019" lon="-3.16547">
        <ele>4</ele>
        <time>2023-10-30T21:27:21Z</time>
      </trkpt>
      <trkpt lat="47.68058" lon="-3.16693">
        <ele>1</ele>
        <time>2023-10-30T21:29:42Z</time>
      </trkpt>
      <trkpt lat="47.68069" lon="-3.16822">
        <ele>1</ele>
        <time>2023-10-30T21:31:39Z</time>
      </trkpt>
      <trkpt lat="47.68123" lon="-3.16841">
        <ele>1</ele>
        <time>2023-10-30T21:32:53Z</time>
      </trkpt>
      <trkpt lat="47.68158" lon="-3.16855">
        <ele>1</ele>
        <time>2023-10-30T21:33:41Z</time>
      </trkpt>
      <trkpt lat="47.68168" lon="-3.16955">
        <ele>2</ele>
        <time>2023-10-30T21:35:12Z</time>
      </trkpt>
      <trkpt lat="47.68233" lon="-3.17125">
        <ele>2</ele>
        <time>2023-10-30T21:38:08Z</time>
      </trkpt>
      <trkpt lat="47.68353" lon="-3.17108">
        <ele>1</ele>
        <time>2023-10-30T21:40:49Z</time>
      </trkpt>
      <trkpt lat="47.68293" lon="-3.17166">
        <ele>1</ele>
        <time>2023-10-30T21:42:24Z</time>
      </trkpt>
      <trkpt lat="47.68239" lon="-3.17196">
        <ele>3</ele>
        <time>2023-10-30T21:43:41Z</time>
      </trkpt>
      <trkpt lat="47.68121" lon="-3.17222">
        <ele>7</ele>
        <time>2023-10-30T21:46:20Z</time>
      </trkpt>
      <trkpt lat="47.68162" lon="-3.17305">
        <ele>9</ele>
        <time>2023-10-30T21:47:53Z</time>
      </trkpt>
      <trkpt lat="47.68136" lon="-3.17571">
        <ele>5</ele>
        <time>2023-10-30T21:51:54Z</time>
      </trkpt>
      <trkpt lat="47.6814" lon="-3.17771">
        <ele>2.9</ele>
        <time>2023-10-30T21:54:54Z</time>
      </trkpt>
      <trkpt lat="47.68171" lon="-3.17928">
        <ele>1</ele>
        <time>2023-10-30T21:57:21Z</time>
      </trkpt>
      <trkpt lat="47.68164" lon="-3.17996">
        <ele>1</ele>
        <time>2023-10-30T21:58:23Z</time>
      </trkpt>
      <trkpt lat="47.68181" lon="-3.18022">
        <ele>1</ele>
        <time>2023-10-30T21:58:55Z</time>
      </trkpt>
      <trkpt lat="47.68182" lon="-3.18082">
        <ele>2</ele>
        <time>2023-10-30T21:59:49Z</time>
      </trkpt>
      <trkpt lat="47.68147" lon="-3.18157">
        <ele>3</ele>
        <time>2023-10-30T22:01:11Z</time>
      </trkpt>
      <trkpt lat="47.68142" lon="-3.18232">
        <ele>4</ele>
        <time>2023-10-30T22:02:19Z</time>
      </trkpt>
      <trkpt lat="47.68166" lon="-3.18333">
        <ele>4</ele>
        <time>2023-10-30T22:03:55Z</time>
      </trkpt>
      <trkpt lat="47.68223" lon="-3.18389">
        <ele>3</ele>
        <time>2023-10-30T22:05:26Z</time>
      </trkpt>
      <trkpt lat="47.68237" lon="-3.18445">
        <ele>3</ele>
        <time>2023-10-30T22:06:20Z</time>
      </trkpt>
      <trkpt lat="47.6827" lon="-3.1839">
        <ele>2</ele>
        <time>2023-10-30T22:07:26Z</time>
      </trkpt>
      <trkpt lat="47.68292" lon="-3.18345">
        <ele>2</ele>
        <time>2023-10-30T22:08:16Z</time>
      </trkpt>
      <trkpt lat="47.6835" lon="-3.18322">
        <ele>2</ele>
        <time>2023-10-30T22:09:36Z</time>
      </trkpt>
      <trkpt lat="47.68451" lon="-3.18344">
        <ele>1</ele>
        <time>2023-10-30T22:11:53Z</time>
      </trkpt>
      <trkpt lat="47.68483" lon="-3.18427">
        <ele>2</ele>
        <time>2023-10-30T22:13:18Z</time>
      </trkpt>
      <trkpt lat="47.68479" lon="-3.18518">
        <ele>2</ele>
        <time>2023-10-30T22:14:40Z</time>
      </trkpt>
      <trkpt lat="47.68577" lon="-3.18549">
        <ele>2</ele>
        <time>2023-10-30T22:16:54Z</time>
      </trkpt>
      <trkpt lat="47.68629" lon="-3.18525">
        <ele>3</ele>
        <time>2023-10-30T22:18:07Z</time>
      </trkpt>
      <trkpt lat="47.68634" lon="-3.1841">
        <ele>3</ele>
        <time>2023-10-30T22:19:50Z</time>
      </trkpt>
      <trkpt lat="47.68693" lon="-3.18372">
        <ele>1</ele>
        <time>2023-10-30T22:21:16Z</time>
      </trkpt>
      <trkpt lat="47.68727" lon="-3.18377">
        <ele>1</ele>
        <time>2023-10-30T22:22:02Z</time>
      </trkpt>
      <trkpt lat="47.68786" lon="-3.1838">
        <time>2023-10-30T22:23:21Z</time>
      </trkpt>
      <trkpt lat="47.68821" lon="-3.18503">
        <ele>1.9</ele>
        <time>2023-10-30T22:25:20Z</time>
      </trkpt>
      <trkpt lat="47.68807" lon="-3.18608">
        <ele>1</ele>
        <time>2023-10-30T22:26:57Z</time>
      </trkpt>
      <trkpt lat="47.68751" lon="-3.18616">
        <ele>1</ele>
        <time>2023-10-30T22:28:12Z</time>
      </trkpt>
      <trkpt lat="47.68701" lon="-3.18598">
        <ele>2</ele>
        <time>2023-10-30T22:29:20Z</time>
      </trkpt>
      <trkpt lat="47.68658" lon="-3.18541">
        <ele>4</ele>
        <time>2023-10-30T22:30:37Z</time>
      </trkpt>
      <trkpt lat="47.68572" lon="-3.18558">
        <ele>2</ele>
        <time>2023-10-30T22:32:33Z</time>
      </trkpt>
      <trkpt lat="47.68526" lon="-3.1855">
        <ele>1</ele>
        <time>2023-10-30T22:33:35Z</time>
      </trkpt>
      <trkpt lat="47.68493" lon="-3.18584">
        <ele>1</ele>
        <time>2023-10-30T22:34:28Z</time>
      </trkpt>
    </trkseg>
  </trk>
</gpx>